This is the latest recevied weather packets stored in our database for station/object VE3MNX. If no packets are shown the sender has not sent any weather packets the latest 1 day(s).
| Time | Temp. | Humidity | Pressure | Rain* | Wind** | Luminosity | Snow |
|---|---|---|---|---|---|---|---|
| 1778036897 | 8.89° C | 99% | 1007.8 hPa | 1.02 mm | - | - | - |
| 1778035998 | 8.89° C | 99% | 1007.8 hPa | 0.51 mm | - | - | - |
| 1778035097 | 8.89° C | 99% | 1007.8 hPa | 0.25 mm | - | - | - |
| 1778033298 | 8.89° C | 99% | 1007.1 hPa | 0 mm | - | - | - |
| 1778032399 | 8.89° C | 99% | 1007.1 hPa | 0.25 mm | - | - | - |
| 1778031497 | 8.89° C | 99% | 1006.8 hPa | 0.51 mm | - | - | - |
| 1778030598 | 8.89° C | 99% | 1006.8 hPa | 0.51 mm | - | - | - |
| 1778029698 | 8.89° C | 99% | 1007.1 hPa | 0.51 mm | - | - | - |
| 1778028799 | 8.89° C | 99% | 1007.1 hPa | 0.25 mm | - | - | - |
| 1778027897 | 8.89° C | 99% | 1006.8 hPa | 0.51 mm | - | - | - |
| 1778027077 | 8.89° C | 99% | 1006.8 hPa | 0.76 mm | - | - | - |
| 1778026181 | 8.89° C | 99% | 1006.4 hPa | 1.02 mm | - | - | - |
| 1778020697 | 9.44° C | 98% | 1006.1 hPa | 1.52 mm | - | - | - |
| 1778018897 | 10° C | 98% | 1006.8 hPa | 1.02 mm | - | - | - |
| 1778017099 | 10.56° C | 95% | 1006.4 hPa | 0.76 mm | - | - | - |
| 1778011697 | 10.56° C | 91% | 1006.7 hPa | 1.52 mm | - | - | - |
| 1778008997 | 12.22° C | 81% | 1006.1 hPa | 0 mm | - | - | - |
| 1778003599 | 15° C | 77% | 1005.1 hPa | 0 mm | - | - | - |
| 1778001797 | 15° C | 74% | 1004.7 hPa | 0 mm | - | - | - |
| 1777999096 | 15.56° C | 75% | 1005.1 hPa | 0 mm | - | - | - |
| 1777997297 | 15° C | 80% | 1004.7 hPa | 0 mm | - | - | - |
| 1777996398 | 15° C | 81% | 1004.2 hPa | 0 mm | - | - | - |
* Rain latest hour (hover to see other rain measurements)
** Current wind speed in m/s (hover to see current wind gust speed)